Time;durP1;ratioP1;P1;durP2;ratioP2;P2;SDS_P1;SDS_P2;PMS_P1;PMS_P2;Temp;Humidity;BMP_temperature;BMP_pressure;BME280_temperature;BME280_humidity;BME280_pressure;Samples;Min_cycle;Max_cycle;Signal;HPM_P1;HPM_P2
2021/12/29 00:02:00;;;;;;;32.78;17.05;;;;;;;-2.75;69.80;101041.06;1792440;80;25729;-61
2021/12/29 00:04:27;;;;;;;33.67;17.20;;;;;;;-2.70;70.11;101037.83;1791978;80;27496;-61
2021/12/29 00:06:59;;;;;;;38.80;19.52;;;;;;;-2.62;70.45;101033.20;1792535;80;26205;-61
2021/12/29 00:09:26;;;;;;;40.73;17.87;;;;;;;-2.53;70.43;101037.35;1792544;80;25681;-62
2021/12/29 00:11:56;;;;;;;36.83;18.73;;;;;;;-2.46;70.23;101049.42;1792261;80;25777;-62
2021/12/29 00:14:23;;;;;;;36.35;18.60;;;;;;;-2.45;69.95;101043.69;1792592;80;25717;-61
2021/12/29 00:16:52;;;;;;;39.20;18.48;;;;;;;-2.43;69.65;101045.83;1792391;80;27476;-60
2021/12/29 00:19:22;;;;;;;34.13;16.77;;;;;;;-2.51;68.91;101044.76;1792052;80;25911;-61
2021/12/29 00:21:52;;;;;;;39.60;19.67;;;;;;;-2.52;69.29;101052.25;1792622;80;25512;-61
2021/12/29 00:24:19;;;;;;;38.65;19.52;;;;;;;-2.52;69.39;101057.05;1789682;79;25546;-60
2021/12/29 00:26:46;;;;;;;43.38;20.75;;;;;;;-2.50;69.67;101056.15;1786534;80;25712;-61
2021/12/29 00:29:14;;;;;;;36.77;18.20;;;;;;;-2.49;69.71;101058.73;1786633;80;27485;-61
2021/12/29 00:31:43;;;;;;;33.05;17.37;;;;;;;-2.47;69.89;101062.19;1786216;79;25697;-60
2021/12/29 00:34:30;;;;;;;34.65;18.27;;;;;;;-2.41;70.11;101063.78;1786269;80;25738;-60
2021/12/29 00:37:15;;;;;;;34.98;17.48;;;;;;;-2.37;69.90;101058.81;1707584;83;25842;-60
2021/12/29 00:40:03;;;;;;;34.53;18.02;;;;;;;-2.36;69.39;101051.31;1771023;80;25721;-61
2021/12/29 00:42:47;;;;;;;33.88;17.82;;;;;;;-2.41;68.78;101044.02;1664837;85;28220;-61
2021/12/29 00:45:36;;;;;;;39.53;18.12;;;;;;;-2.42;69.28;101048.41;1736662;81;25529;-60
2021/12/29 00:48:08;;;;;;;33.78;17.35;;;;;;;-2.40;69.47;101050.55;1755468;81;25728;-60
2021/12/29 00:50:35;;;;;;;39.58;18.85;;;;;;;-2.42;69.33;101048.88;1747100;82;26168;-61
2021/12/29 00:53:03;;;;;;;36.48;17.48;;;;;;;-2.45;69.22;101045.88;1755297;80;26125;-61
2021/12/29 00:55:29;;;;;;;34.25;17.92;;;;;;;-2.43;69.29;101050.66;1765313;81;27440;-61
2021/12/29 00:57:56;;;;;;;33.40;17.73;;;;;;;-2.41;69.37;101050.61;1767651;81;25648;-61
2021/12/29 01:00:25;;;;;;;42.93;21.00;;;;;;;-2.39;68.97;101044.84;1773353;80;25868;-60
2021/12/29 01:02:52;;;;;;;38.92;18.77;;;;;;;-2.41;69.15;101042.23;1775449;80;25491;-60
2021/12/29 01:05:20;;;;;;;41.98;19.35;;;;;;;-2.36;69.48;101042.09;1775195;80;25816;-60
2021/12/29 01:07:50;;;;;;;41.13;19.17;;;;;;;-2.33;69.58;101040.69;1775187;80;28446;-61
2021/12/29 01:10:18;;;;;;;37.63;18.87;;;;;;;-2.31;69.40;101040.64;1773928;80;25925;-61
2021/12/29 01:12:57;;;;;;;34.53;17.52;;;;;;;-2.33;69.45;101035.89;1775122;80;25957;-61
2021/12/29 01:15:30;;;;;;;37.88;19.48;;;;;;;-2.36;69.36;101026.28;1774692;80;26199;-62
2021/12/29 01:17:57;;;;;;;34.53;17.57;;;;;;;-2.35;69.02;101035.91;1774723;80;25775;-62
2021/12/29 01:20:25;;;;;;;40.03;19.87;;;;;;;-2.37;69.15;101030.70;1775161;80;27470;-62
2021/12/29 01:22:52;;;;;;;41.60;20.17;;;;;;;-2.32;69.24;101034.52;1773731;80;25893;-62
2021/12/29 01:25:21;;;;;;;58.48;22.80;;;;;;;-2.35;68.67;101037.23;1781720;79;25758;-61
2021/12/29 01:27:49;;;;;;;68.83;26.93;;;;;;;-2.49;67.90;101040.28;1784150;80;25748;-62
2021/12/29 01:30:17;;;;;;;58.60;26.57;;;;;;;-2.61;68.26;101042.83;1784386;80;25770;-62
2021/12/29 01:32:44;;;;;;;36.23;18.40;;;;;;;-2.62;68.74;101043.73;1784493;80;26998;-61
2021/12/29 01:35:13;;;;;;;43.90;19.82;;;;;;;-2.55;69.16;101040.48;1784081;80;25821;-62
2021/12/29 01:37:40;;;;;;;33.18;19.27;;;;;;;-2.50;69.14;101044.30;1784147;80;25715;-61
2021/12/29 01:40:16;;;;;;;34.35;18.37;;;;;;;-2.58;68.36;101040.13;1784307;80;25714;-61
2021/12/29 01:42:44;;;;;;;36.08;18.37;;;;;;;-2.62;68.36;101038.47;1783040;80;25819;-62
2021/12/29 01:45:12;;;;;;;36.40;18.85;;;;;;;-2.65;68.48;101041.66;1783774;79;27708;-62
2021/12/29 01:47:40;;;;;;;41.28;19.50;;;;;;;-2.65;68.74;101035.95;1784149;80;25737;-61
2021/12/29 01:50:10;;;;;;;39.85;17.90;;;;;;;-2.66;68.78;101032.91;1784453;80;25726;-62
2021/12/29 01:52:41;;;;;;;42.75;18.73;;;;;;;-2.67;68.86;101039.92;1784201;80;25715;-62
2021/12/29 01:55:13;;;;;;;39.58;19.00;;;;;;;-2.64;69.16;101032.84;1784199;80;25809;-62
2021/12/29 01:57:42;;;;;;;33.18;18.57;;;;;;;-2.61;69.37;101027.50;1784240;80;27361;-61
2021/12/29 02:00:14;;;;;;;39.23;17.85;;;;;;;-2.56;69.45;101032.16;1784378;80;25857;-61
2021/12/29 02:02:42;;;;;;;40.38;18.52;;;;;;;-2.52;69.15;101033.81;1784384;80;25504;-61
2021/12/29 02:05:10;;;;;;;41.30;18.37;;;;;;;-2.57;68.75;101026.05;1784658;80;25488;-61
2021/12/29 02:07:37;;;;;;;37.65;18.42;;;;;;;-2.64;68.48;101023.16;1784234;80;25810;-62
2021/12/29 02:10:07;;;;;;;35.52;18.10;;;;;;;-2.72;68.54;101028.67;1784314;80;27482;-62
2021/12/29 02:12:36;;;;;;;31.65;16.17;;;;;;;-2.77;68.46;101029.71;1784325;80;26403;-61
2021/12/29 02:15:08;;;;;;;38.42;18.12;;;;;;;-2.86;68.41;101021.17;1784734;80;25794;-62
2021/12/29 02:17:35;;;;;;;37.70;18.77;;;;;;;-3.01;68.34;101026.41;1784392;80;26182;-62
2021/12/29 02:20:06;;;;;;;42.50;17.80;;;;;;;-3.05;68.62;101023.91;1784401;80;25742;-62
2021/12/29 02:22:43;;;;;;;40.60;18.25;;;;;;;-3.10;68.71;101024.04;1784442;80;28144;-62
2021/12/29 02:27:54;;;;;;;39.88;18.02;;;;;;;-3.17;69.04;101018.07;1781231;79;25786;-62
2021/12/29 02:30:25;;;;;;;37.38;18.95;;;;;;;-3.22;69.16;101011.20;1781110;80;25809;-62
2021/12/29 02:33:00;;;;;;;34.70;18.15;;;;;;;-3.19;69.40;101010.70;1781043;79;25773;-62
2021/12/29 02:35:26;;;;;;;39.60;19.13;;;;;;;-3.18;69.43;101003.19;1781479;79;27466;-62
2021/12/29 02:37:53;;;;;;;39.38;19.70;;;;;;;-3.23;69.15;100998.98;1781006;80;25955;-62
2021/12/29 02:40:20;;;;;;;39.83;18.62;;;;;;;-3.21;69.44;101000.66;1781276;80;25580;-61
2021/12/29 02:42:47;;;;;;;37.55;18.85;;;;;;;-3.13;69.69;100993.00;1781003;80;25774;-62
2021/12/29 02:45:20;;;;;;;40.40;18.98;;;;;;;-3.10;69.41;101000.34;1781092;80;25682;-62
2021/12/29 02:47:49;;;;;;;33.47;16.17;;;;;;;-3.09;69.16;101003.39;1781187;80;27598;-62
2021/12/29 02:50:18;;;;;;;33.88;17.45;;;;;;;-3.14;69.04;101002.67;1781328;80;25822;-62
2021/12/29 02:52:46;;;;;;;38.80;18.98;;;;;;;-3.24;68.92;100997.25;1780972;80;25728;-62
2021/12/29 02:55:14;;;;;;;36.20;20.23;;;;;;;-3.31;69.13;100991.28;1770744;80;25609;-62
2021/12/29 02:57:42;;;;;;;38.53;18.95;;;;;;;-3.35;69.22;100989.63;1767446;81;25718;-62
2021/12/29 03:00:13;;;;;;;40.98;20.97;;;;;;;-3.33;69.63;100987.39;1776328;80;27445;-61
2021/12/29 03:02:44;;;;;;;37.70;18.45;;;;;;;-3.26;69.83;100984.58;1780789;79;25714;-62
2021/12/29 03:05:11;;;;;;;39.95;18.73;;;;;;;-3.24;69.59;100982.31;1781171;80;25488;-62
2021/12/29 03:07:38;;;;;;;41.50;18.65;;;;;;;-3.27;69.08;100982.39;1781037;80;26349;-61
2021/12/29 03:10:08;;;;;;;42.35;17.17;;;;;;;-3.26;69.49;100984.58;1781439;80;25730;-62
2021/12/29 03:12:38;;;;;;;37.60;19.20;;;;;;;-3.30;69.14;100978.55;1780708;80;27502;-62
2021/12/29 03:15:07;;;;;;;44.03;19.17;;;;;;;-3.30;69.54;100993.02;1777605;80;25826;-61
2021/12/29 03:17:33;;;;;;;37.90;19.60;;;;;;;-3.27;69.56;100986.33;1781036;80;25699;-61
2021/12/29 03:20:00;;;;;;;39.75;18.42;;;;;;;-3.28;69.43;100984.64;1781066;80;25718;-61
2021/12/29 03:22:27;;;;;;;42.90;19.57;;;;;;;-3.25;69.55;100984.53;1781005;80;25868;-62
2021/12/29 03:24:54;;;;;;;41.37;20.12;;;;;;;-3.24;69.53;100989.36;1750816;80;27552;-62
2021/12/29 03:27:21;;;;;;;43.00;20.60;;;;;;;-3.22;69.39;100994.09;1774965;80;25757;-63
2021/12/29 03:29:48;;;;;;;43.92;19.55;;;;;;;-3.23;69.05;100987.98;1775396;80;25779;-60
2021/12/29 03:32:23;;;;;;;37.65;17.37;;;;;;;-3.19;69.34;100980.87;1775121;80;25669;-61
2021/12/29 03:34:44;;;;;;;44.67;20.12;;;;;;;-3.14;69.75;100977.67;1796967;79;25691;-61
2021/12/29 03:37:12;;;;;;;38.53;17.90;;;;;;;-3.09;69.55;100973.59;1802389;79;27442;-62
2021/12/29 03:39:39;;;;;;;35.10;18.25;;;;;;;-3.07;69.13;100975.27;1802297;79;25542;-61
2021/12/29 03:42:07;;;;;;;35.10;18.95;;;;;;;-3.17;68.70;100977.75;1792946;79;25487;-61
2021/12/29 03:44:35;;;;;;;36.38;19.17;;;;;;;-3.17;69.01;100979.06;1760688;81;26139;-60
2021/12/29 03:47:03;;;;;;;46.15;20.05;;;;;;;-3.10;69.55;100982.39;1760472;81;25799;-61
2021/12/29 03:49:31;;;;;;;40.43;19.00;;;;;;;-3.05;69.25;100981.33;1760888;81;27450;-62
2021/12/29 03:51:58;;;;;;;42.38;18.73;;;;;;;-3.05;68.92;100988.38;1759700;81;25775;-62
2021/12/29 03:54:26;;;;;;;42.38;19.82;;;;;;;-3.17;68.29;100990.91;1763531;80;25788;-61
2021/12/29 03:56:55;;;;;;;43.65;19.40;;;;;;;-3.27;68.59;100985.48;1767278;81;25814;-62
2021/12/29 03:59:22;;;;;;;36.45;17.50;;;;;;;-3.24;69.09;100987.58;1770055;80;25690;-62
2021/12/29 04:01:50;;;;;;;33.63;17.90;;;;;;;-3.27;68.88;100991.59;1775155;80;27472;-62
2021/12/29 04:04:19;;;;;;;33.70;18.92;;;;;;;-3.32;69.02;100982.98;1775124;80;26227;-61
2021/12/29 04:06:47;;;;;;;37.08;19.00;;;;;;;-3.25;69.33;100981.90;1775521;80;25455;-63
2021/12/29 04:09:15;;;;;;;35.38;18.70;;;;;;;-3.23;68.86;100977.93;1775248;80;26497;-62
2021/12/29 04:11:42;;;;;;;32.93;18.07;;;;;;;-3.27;68.76;100978.44;1775567;80;25816;-63
2021/12/29 04:14:10;;;;;;;33.80;18.12;;;;;;;-3.32;68.94;100973.30;1775330;80;28244;-62
2021/12/29 04:16:40;;;;;;;33.30;17.80;;;;;;;-3.33;68.92;100977.30;1775008;80;26574;-61
2021/12/29 04:19:07;;;;;;;44.15;18.85;;;;;;;-3.35;68.84;100972.09;1775241;80;25796;-61
2021/12/29 04:21:37;;;;;;;34.03;19.35;;;;;;;-3.30;69.36;100977.23;1775205;80;25743;-60
2021/12/29 04:24:06;;;;;;;40.30;20.05;;;;;;;-3.26;69.25;100965.70;1775534;80;26034;-62
2021/12/29 04:26:36;;;;;;;41.18;21.45;;;;;;;-3.19;69.30;100970.34;1782349;80;27505;-62
2021/12/29 04:29:06;;;;;;;43.42;23.38;;;;;;;-3.20;68.90;100973.44;1784905;79;25769;-62
2021/12/29 04:31:35;;;;;;;42.43;22.52;;;;;;;-3.16;69.37;100976.84;1783072;80;25631;-62
2021/12/29 04:34:02;;;;;;;36.38;19.30;;;;;;;-3.08;69.20;100968.28;1784522;79;26272;-62
2021/12/29 04:36:29;;;;;;;46.63;21.95;;;;;;;-3.10;68.59;100971.40;1784114;79;25738;-61
2021/12/29 04:38:59;;;;;;;40.28;18.00;;;;;;;-3.09;68.82;100977.55;1784155;80;27487;-61
2021/12/29 04:41:28;;;;;;;32.67;17.95;;;;;;;-3.06;68.54;100972.17;1784339;79;25750;-63
2021/12/29 04:43:55;;;;;;;37.48;18.48;;;;;;;-3.10;68.61;100966.14;1784366;80;25636;-62
2021/12/29 04:46:35;;;;;;;32.40;17.25;;;;;;;-3.06;68.81;100970.42;1784206;80;25737;-62
2021/12/29 04:48:59;;;;;;;37.75;17.35;;;;;;;-3.07;68.40;100959.91;1782380;80;25850;-62
2021/12/29 04:51:33;;;;;;;38.40;18.57;;;;;;;-3.11;68.33;100974.09;1783621;80;28204;-62
2021/12/29 04:53:55;;;;;;;29.82;16.10;;;;;;;-3.11;68.50;100980.20;1782769;80;26371;-62
2021/12/29 04:56:22;;;;;;;36.33;18.62;;;;;;;-3.08;68.47;100976.61;1784372;80;25766;-63
2021/12/29 04:58:49;;;;;;;42.23;19.10;;;;;;;-3.05;68.50;100976.06;1783988;80;25746;-62
2021/12/29 05:01:16;;;;;;;44.08;19.80;;;;;;;-2.99;68.60;100981.61;1784189;80;25462;-62
2021/12/29 05:03:44;;;;;;;33.65;18.12;;;;;;;-2.96;68.50;100988.11;1784376;80;27490;-62
2021/12/29 05:08:39;;;;;;;37.28;18.42;;;;;;;-3.03;68.10;100991.37;1784332;80;25694;-62
2021/12/29 05:11:10;;;;;;;42.80;21.12;;;;;;;-3.01;67.89;100997.92;1784096;79;25771;-62
2021/12/29 05:13:40;;;;;;;46.35;22.13;;;;;;;-3.18;67.35;100999.70;1784304;80;25914;-62
2021/12/29 05:16:08;;;;;;;48.48;20.95;;;;;;;-3.34;67.66;100993.99;1784153;80;27477;-62
2021/12/29 05:18:37;;;;;;;38.48;19.32;;;;;;;-3.43;67.89;100995.12;1784289;80;25767;-61
2021/12/29 05:21:07;;;;;;;42.50;21.75;;;;;;;-3.49;68.10;100983.42;1784121;80;25674;-61
2021/12/29 05:23:35;;;;;;;42.67;20.43;;;;;;;-3.51;68.44;100983.94;1784484;79;25809;-62
2021/12/29 05:26:03;;;;;;;42.75;20.32;;;;;;;-3.44;68.94;100989.44;1780330;80;25729;-62
2021/12/29 05:28:32;;;;;;;42.03;21.42;;;;;;;-3.40;68.96;100994.17;1775223;80;27489;-63
2021/12/29 05:31:01;;;;;;;42.23;21.02;;;;;;;-3.36;69.13;100993.19;1775150;80;25782;-60
2021/12/29 05:33:28;;;;;;;37.17;18.07;;;;;;;-3.40;68.74;100984.96;1775452;80;25767;-63
2021/12/29 05:35:54;;;;;;;46.63;21.27;;;;;;;-3.45;68.95;100995.60;1775264;80;25727;-63
2021/12/29 05:38:25;;;;;;;56.37;23.70;;;;;;;-3.40;69.28;100996.33;1775104;80;25810;-62
2021/12/29 05:40:52;;;;;;;47.27;22.60;;;;;;;-3.29;69.31;100997.38;1775282;80;27462;-62
2021/12/29 05:43:20;;;;;;;58.02;25.82;;;;;;;-3.22;69.23;101013.41;1775085;80;25695;-62
2021/12/29 05:45:51;;;;;;;54.55;29.55;;;;;;;-3.28;68.91;101007.44;1775248;80;26321;-61
2021/12/29 05:48:21;;;;;;;58.20;29.48;;;;;;;-3.23;69.09;101014.77;1775407;80;25643;-62
2021/12/29 05:50:48;;;;;;;53.50;26.02;;;;;;;-3.18;69.28;101007.13;1775464;80;25754;-62
2021/12/29 05:53:15;;;;;;;60.48;28.57;;;;;;;-3.18;68.94;101015.02;1775287;80;27467;-61
2021/12/29 05:55:42;;;;;;;57.93;26.95;;;;;;;-3.19;68.81;101020.34;1774948;80;25773;-62
2021/12/29 05:58:13;;;;;;;56.48;27.35;;;;;;;-3.23;68.50;101017.41;1775080;80;25781;-61
2021/12/29 06:00:41;;;;;;;46.28;24.05;;;;;;;-3.26;68.59;101020.10;1762583;80;26354;-61
2021/12/29 06:03:10;;;;;;;51.70;25.00;;;;;;;-3.27;68.61;101033.69;1761077;81;25519;-62
2021/12/29 06:05:38;;;;;;;50.92;24.47;;;;;;;-3.31;68.52;101032.91;1760764;81;28314;-62
2021/12/29 06:08:09;;;;;;;47.98;24.43;;;;;;;-3.30;68.96;101039.06;1760998;81;25710;-61
2021/12/29 06:10:38;;;;;;;48.48;23.95;;;;;;;-3.22;69.20;101038.40;1760723;81;25740;-62
2021/12/29 06:13:06;;;;;;;46.88;23.27;;;;;;;-3.22;68.72;101033.57;1761330;81;26168;-61
2021/12/29 06:15:35;;;;;;;45.45;21.82;;;;;;;-3.25;68.85;101037.16;1760781;81;25800;-61
2021/12/29 06:18:05;;;;;;;48.45;26.10;;;;;;;-3.24;68.62;101039.35;1760520;81;27522;-62
2021/12/29 06:20:38;;;;;;;42.43;22.80;;;;;;;-3.18;68.98;101040.03;1761289;81;25842;-63
2021/12/29 06:23:12;;;;;;;55.30;26.37;;;;;;;-3.11;69.09;101043.36;1760996;81;25768;-62
2021/12/29 06:25:37;;;;;;;40.65;21.75;;;;;;;-3.06;69.05;101041.48;1762113;81;25458;-62
2021/12/29 06:28:05;;;;;;;42.60;22.32;;;;;;;-3.09;68.10;101039.39;1770182;81;26369;-61
2021/12/29 06:30:34;;;;;;;46.02;21.10;;;;;;;-3.19;67.79;101038.33;1770731;81;27432;-62
2021/12/29 06:33:01;;;;;;;48.38;23.15;;;;;;;-3.21;68.13;101033.55;1770346;81;26146;-61
2021/12/29 06:35:28;;;;;;;92.30;34.83;;;;;;;-3.21;67.92;101035.30;1770161;81;25733;-62
2021/12/29 06:37:57;;;;;;;60.80;26.87;;;;;;;-3.30;67.37;101039.91;1770371;81;26049;-61
2021/12/29 06:40:23;;;;;;;50.17;21.62;;;;;;;-3.32;67.74;101035.13;1770561;81;25971;-59
2021/12/29 06:42:50;;;;;;;61.45;24.80;;;;;;;-3.35;67.56;101044.44;1770535;80;27484;-61
2021/12/29 06:45:17;;;;;;;76.92;27.02;;;;;;;-3.39;67.65;101036.20;1770730;81;25496;-61
2021/12/29 06:47:45;;;;;;;98.07;33.28;;;;;;;-3.34;68.20;101031.70;1770906;81;25766;-62
2021/12/29 06:50:14;;;;;;;89.87;33.65;;;;;;;-3.23;68.44;101029.24;1771348;81;25762;-62
2021/12/29 06:52:43;;;;;;;70.17;31.73;;;;;;;-3.20;68.10;101035.28;1770905;81;25802;-61
2021/12/29 06:55:10;;;;;;;73.70;32.30;;;;;;;-3.18;68.03;101026.87;1770711;81;27527;-61
2021/12/29 06:57:37;;;;;;;60.80;28.23;;;;;;;-3.20;67.93;101034.40;1770435;81;26048;-60
2021/12/29 07:00:06;;;;;;;54.23;24.90;;;;;;;-3.23;67.88;101039.30;1770657;81;25644;-61
2021/12/29 07:02:33;;;;;;;43.80;25.12;;;;;;;-3.20;67.69;101031.34;1771028;81;25789;-60
2021/12/29 07:05:00;;;;;;;58.73;25.95;;;;;;;-3.25;67.38;101026.63;1770878;81;25686;-60
2021/12/29 07:07:27;;;;;;;54.13;25.70;;;;;;;-3.26;67.57;101024.90;1770889;81;27573;-62
2021/12/29 07:09:55;;;;;;;46.95;23.20;;;;;;;-3.24;67.70;101027.52;1770763;81;26005;-62
2021/12/29 07:12:25;;;;;;;43.00;21.57;;;;;;;-3.24;67.43;101027.05;1770190;81;25783;-61
2021/12/29 07:14:54;;;;;;;46.13;20.70;;;;;;;-3.17;67.86;101026.44;1770811;81;25930;-61
2021/12/29 07:17:22;;;;;;;40.25;19.62;;;;;;;-3.10;67.44;101028.45;1770377;81;25771;-62
2021/12/29 07:19:51;;;;;;;36.98;18.27;;;;;;;-3.08;67.34;101025.30;1770546;81;27494;-62
2021/12/29 07:22:20;;;;;;;41.85;17.80;;;;;;;-3.11;66.92;101024.09;1770694;81;25726;-62
2021/12/29 07:24:46;;;;;;;42.98;22.13;;;;;;;-3.09;67.25;101019.19;1770894;81;25834;-61
2021/12/29 07:27:15;;;;;;;42.45;21.00;;;;;;;-3.09;67.04;101021.81;1779435;80;26277;-62
2021/12/29 07:29:43;;;;;;;38.42;18.48;;;;;;;-3.12;67.21;101020.58;1784523;80;25734;-62
2021/12/29 07:32:10;;;;;;;37.13;18.27;;;;;;;-3.19;66.75;101023.85;1782964;80;27490;-61
2021/12/29 07:34:38;;;;;;;36.53;17.82;;;;;;;-3.19;67.18;101022.54;1784036;79;25789;-61
2021/12/29 07:37:04;;;;;;;34.25;17.80;;;;;;;-3.12;67.56;101027.63;1784404;80;25646;-62
2021/12/29 07:39:31;;;;;;;37.13;18.25;;;;;;;-3.07;67.42;101018.70;1783959;80;25805;-60
2021/12/29 07:42:00;;;;;;;39.50;19.70;;;;;;;-3.01;67.68;101020.30;1778833;79;25749;-61
2021/12/29 07:44:29;;;;;;;47.67;22.32;;;;;;;-2.98;67.21;101016.25;1786971;79;27492;-60
2021/12/29 07:46:59;;;;;;;46.58;22.37;;;;;;;-3.03;66.74;101020.32;1802456;79;25781;-61
2021/12/29 07:49:27;;;;;;;46.23;23.18;;;;;;;-3.15;66.61;101008.84;1802142;79;25716;-62
2021/12/29 07:51:57;;;;;;;50.03;24.32;;;;;;;-3.19;66.90;101009.81;1802547;79;26602;-62
2021/12/29 07:54:24;;;;;;;53.98;26.55;;;;;;;-3.18;67.07;101012.86;1794687;79;27337;-62
2021/12/29 07:56:51;;;;;;;48.55;25.00;;;;;;;-3.25;66.91;101017.89;1784266;80;27504;-62
2021/12/29 07:59:20;;;;;;;50.45;25.05;;;;;;;-3.26;67.16;101013.06;1784082;80;26371;-61
2021/12/29 08:01:50;;;;;;;52.48;24.65;;;;;;;-3.28;67.28;101015.33;1783878;79;25762;-63
2021/12/29 08:04:20;;;;;;;41.18;23.10;;;;;;;-3.22;67.50;101012.09;1784354;80;27920;-62
2021/12/29 08:06:48;;;;;;;51.37;26.97;;;;;;;-3.19;67.50;101015.95;1783677;80;25838;-62
2021/12/29 08:09:15;;;;;;;47.98;23.75;;;;;;;-3.11;67.50;101008.30;1784441;80;27424;-61
2021/12/29 08:11:42;;;;;;;48.95;25.68;;;;;;;-3.08;67.15;101010.39;1783956;80;25749;-61
2021/12/29 08:14:10;;;;;;;43.50;22.48;;;;;;;-3.10;67.10;101017.45;1784354;79;26414;-62
2021/12/29 08:16:38;;;;;;;51.75;24.90;;;;;;;-3.07;67.35;101023.96;1783920;80;25908;-61
2021/12/29 08:19:09;;;;;;;45.25;22.90;;;;;;;-2.99;67.40;101022.41;1784279;80;25750;-61
2021/12/29 08:21:36;;;;;;;41.98;21.77;;;;;;;-2.95;67.31;101025.38;1784020;80;27490;-60
2021/12/29 08:24:04;;;;;;;45.08;24.52;;;;;;;-2.88;67.29;101026.08;1784564;80;25779;-60
2021/12/29 08:26:33;;;;;;;50.80;25.37;;;;;;;-2.87;67.29;101026.02;1782271;80;25670;-61
2021/12/29 08:29:01;;;;;;;61.00;28.17;;;;;;;-2.81;67.27;101022.36;1775360;80;25811;-59
2021/12/29 08:31:28;;;;;;;58.42;27.35;;;;;;;-2.87;66.82;101019.91;1775232;80;25735;-61
2021/12/29 08:33:58;;;;;;;54.67;28.90;;;;;;;-2.91;67.26;101015.16;1775013;80;27544;-60
2021/12/29 08:36:25;;;;;;;62.98;28.07;;;;;;;-2.85;67.47;101016.31;1775070;80;25826;-61
2021/12/29 08:38:52;;;;;;;57.67;28.92;;;;;;;-2.79;67.40;101019.23;1775294;80;25770;-62
2021/12/29 08:41:19;;;;;;;53.87;27.58;;;;;;;-2.75;67.47;101004.20;1774895;80;25811;-60
2021/12/29 08:43:47;;;;;;;58.55;28.87;;;;;;;-2.68;67.56;101005.27;1761475;80;27292;-61
2021/12/29 08:46:16;;;;;;;53.80;28.47;;;;;;;-2.66;67.42;101005.25;1760442;81;27492;-61
2021/12/29 08:48:44;;;;;;;52.83;27.62;;;;;;;-2.66;67.32;101007.88;1760221;81;25818;-61
2021/12/29 08:51:13;;;;;;;52.75;26.57;;;;;;;-2.65;67.09;101010.05;1760439;81;25675;-61
2021/12/29 08:53:40;;;;;;;51.23;26.60;;;;;;;-2.77;66.85;101009.49;1762103;80;25815;-61
2021/12/29 08:56:07;;;;;;;56.35;27.90;;;;;;;-2.71;67.39;101007.14;1775075;80;25497;-62
2021/12/29 08:58:34;;;;;;;54.48;27.30;;;;;;;-2.61;67.41;101007.27;1774883;80;28174;-61
2021/12/29 09:01:04;;;;;;;47.03;25.48;;;;;;;-2.50;67.58;101006.09;1780841;80;25830;-61
2021/12/29 09:03:31;;;;;;;45.10;25.97;;;;;;;-2.40;67.16;101003.12;1780907;80;25830;-61
2021/12/29 09:05:59;;;;;;;54.00;29.25;;;;;;;-2.40;66.62;100997.00;1780591;79;25887;-59
2021/12/29 09:08:26;;;;;;;59.75;28.92;;;;;;;-2.46;66.67;100998.48;1781057;80;25759;-62
2021/12/29 09:10:53;;;;;;;59.63;30.27;;;;;;;-2.39;67.09;100996.09;1780749;80;28185;-62
2021/12/29 09:13:21;;;;;;;56.58;28.80;;;;;;;-2.36;66.87;100997.30;1780819;79;25730;-61
2021/12/29 09:15:49;;;;;;;56.60;29.32;;;;;;;-2.31;66.79;100995.84;1780851;80;25716;-61
2021/12/29 09:18:17;;;;;;;61.23;30.77;;;;;;;-2.29;66.78;100994.02;1767442;80;25823;-61
2021/12/29 09:20:45;;;;;;;60.75;28.92;;;;;;;-2.24;66.81;100997.39;1744163;82;25842;-61
2021/12/29 09:23:14;;;;;;;61.30;31.48;;;;;;;-2.18;66.92;100994.99;1744359;82;27432;-61
2021/12/29 09:25:44;;;;;;;56.18;30.15;;;;;;;-2.10;66.62;100992.97;1745965;80;25751;-62
2021/12/29 09:28:18;;;;;;;61.55;30.45;;;;;;;-2.06;66.60;100991.50;1744470;82;25905;-61
2021/12/29 09:30:47;;;;;;;53.25;28.23;;;;;;;-2.03;66.50;100985.73;1744530;81;25800;-61
2021/12/29 09:33:16;;;;;;;46.00;21.68;;;;;;;-2.01;66.36;100988.72;1744716;81;25723;-61
2021/12/29 09:35:46;;;;;;;42.48;22.42;;;;;;;-2.00;65.98;100993.55;1744501;82;28143;-61
2021/12/29 09:38:12;;;;;;;45.63;23.15;;;;;;;-2.00;66.16;100994.40;1744345;82;25793;-61
2021/12/29 09:40:40;;;;;;;38.42;21.30;;;;;;;-1.96;65.81;100992.08;1744282;82;25751;-60
2021/12/29 09:43:07;;;;;;;37.58;18.40;;;;;;;-1.98;65.75;100989.09;1754708;80;25839;-59
2021/12/29 09:45:40;;;;;;;31.77;15.72;;;;;;;-1.97;65.34;100987.72;1760466;81;25470;-61
2021/12/29 09:48:08;;;;;;;24.43;13.13;;;;;;;-2.01;65.38;100987.39;1760727;80;28211;-61
2021/12/29 09:50:37;;;;;;;20.25;11.50;;;;;;;-2.08;64.88;100978.85;1760702;81;25810;-61
2021/12/29 09:53:06;;;;;;;22.62;13.13;;;;;;;-2.15;65.02;100972.50;1760437;81;25896;-61
2021/12/29 09:55:35;;;;;;;24.15;12.90;;;;;;;-2.15;65.47;100965.91;1765922;81;25813;-61
2021/12/29 09:58:04;;;;;;;25.52;14.05;;;;;;;-2.19;65.12;100951.97;1767413;81;25749;-61
2021/12/29 10:00:36;;;;;;;23.70;13.05;;;;;;;-2.16;65.28;100954.52;1773483;80;27604;-60
2021/12/29 10:03:07;;;;;;;24.02;12.20;;;;;;;-2.11;65.28;100956.53;1774916;80;25819;-61
2021/12/29 10:05:37;;;;;;;25.12;12.05;;;;;;;-2.08;64.59;100957.77;1775300;80;25785;-60
2021/12/29 10:08:12;;;;;;;26.05;13.20;;;;;;;-2.09;64.74;100953.40;1775170;80;26423;-61
2021/12/29 10:10:44;;;;;;;21.50;12.68;;;;;;;-2.07;64.79;100945.42;1775016;80;25850;-60
2021/12/29 10:13:13;;;;;;;26.87;13.60;;;;;;;-2.05;64.73;100939.19;1774681;80;28168;-61
2021/12/29 10:15:45;;;;;;;23.95;12.82;;;;;;;-2.01;64.84;100929.87;1774759;80;25878;-61
2021/12/29 10:18:20;;;;;;;26.77;13.22;;;;;;;-2.00;64.67;100924.53;1774910;80;25813;-61
2021/12/29 10:21:00;;;;;;;26.00;13.25;;;;;;;-1.97;65.21;100928.86;1773865;80;25772;-61
2021/12/29 10:25:58;;;;;;;27.32;13.85;;;;;;;-1.86;64.25;100914.83;1866322;76;25531;-61
2021/12/29 10:28:29;;;;;;;21.05;12.40;;;;;;;-2.01;64.59;100914.05;1823013;77;25704;-61
2021/12/29 10:31:04;;;;;;;31.45;16.73;;;;;;;-1.94;64.73;100905.89;1823693;78;27502;-61
2021/12/29 10:33:36;;;;;;;29.45;16.87;;;;;;;-1.90;65.15;100907.48;1823008;77;25822;-60
2021/12/29 10:36:21;;;;;;;37.50;16.85;;;;;;;-1.78;65.38;100902.23;1823240;78;25715;-59
2021/12/29 10:38:53;;;;;;;23.22;14.07;;;;;;;-1.68;64.89;100905.43;1823343;78;25742;-61
2021/12/29 10:41:20;;;;;;;22.15;13.08;;;;;;;-1.62;64.49;100902.56;1786519;80;26020;-61
2021/12/29 10:43:54;;;;;;;24.67;12.80;;;;;;;-1.60;64.04;100899.86;1752226;81;28313;-61
2021/12/29 10:46:23;;;;;;;28.65;15.05;;;;;;;-1.59;64.29;100903.78;1753794;81;25758;-61
2021/12/29 10:48:53;;;;;;;21.97;12.18;;;;;;;-1.60;64.15;100899.42;1750850;81;26402;-61
2021/12/29 10:51:29;;;;;;;25.40;14.03;;;;;;;-1.64;64.20;100902.22;1753749;81;25694;-60
2021/12/29 10:54:16;;;;;;;26.85;13.08;;;;;;;-1.66;64.06;100894.34;1754151;80;25736;-61
2021/12/29 10:56:49;;;;;;;26.75;13.80;;;;;;;-1.71;64.05;100891.49;1757945;81;28150;-61
2021/12/29 10:59:21;;;;;;;25.50;13.65;;;;;;;-1.75;64.45;100893.38;1757940;80;25981;-61
2021/12/29 11:01:51;;;;;;;27.60;13.40;;;;;;;-1.71;64.68;100896.30;1776433;80;25862;-62
2021/12/29 11:04:19;;;;;;;30.65;15.10;;;;;;;-1.68;64.04;100894.00;1776221;80;25442;-61
2021/12/29 11:06:55;;;;;;;31.15;16.82;;;;;;;-1.73;64.06;100896.80;1776006;80;25718;-60
2021/12/29 11:09:34;;;;;;;26.10;15.48;;;;;;;-1.72;64.21;100892.41;1776642;80;27642;-61
2021/12/29 11:12:12;;;;;;;29.30;15.15;;;;;;;-1.70;64.75;100890.11;1776509;80;25790;-61
2021/12/29 11:14:43;;;;;;;28.32;14.63;;;;;;;-1.65;64.50;100884.67;1776635;80;25786;-62
2021/12/29 11:17:22;;;;;;;29.27;15.50;;;;;;;-1.67;64.20;100891.33;1776423;80;25742;-61
2021/12/29 11:19:54;;;;;;;27.07;14.63;;;;;;;-1.69;64.51;100884.36;1774746;80;25757;-61
2021/12/29 11:22:27;;;;;;;30.68;16.25;;;;;;;-1.64;64.82;100887.23;1776385;80;28342;-59
2021/12/29 11:25:00;;;;;;;31.57;15.48;;;;;;;-1.59;65.15;100892.35;1776218;80;25831;-61
2021/12/29 11:27:31;;;;;;;36.58;17.20;;;;;;;-1.57;64.37;100895.33;1776592;80;31106;-61